Time;durP1;ratioP1;P1;durP2;ratioP2;P2;SDS_P1;SDS_P2;PMS_P1;PMS_P2;Temp;Humidity;BMP_temperature;BMP_pressure;BME280_temperature;BME280_humidity;BME280_pressure;Samples;Min_cycle;Max_cycle;Signal;HPM_P1;HPM_P2
2022/03/22 00:00:32;;;;;;;32.95;9.77;;;13.40;75.80;;;;;;5007725;28;21209;-72
2022/03/22 00:02:57;;;;;;;28.60;9.52;;;13.40;75.80;;;;;;5023486;28;20025;-74
2022/03/22 00:05:23;;;;;;;34.05;9.68;;;13.40;75.80;;;;;;5012650;28;20044;-71
2022/03/22 00:07:50;;;;;;;36.15;9.70;;;13.40;75.80;;;;;;5021890;28;20033;-74
2022/03/22 00:10:16;;;;;;;26.35;9.50;;;13.40;75.90;;;;;;5023697;28;20037;-72
2022/03/22 00:12:42;;;;;;;26.08;8.50;;;13.40;76.00;;;;;;5026806;28;20029;-74
2022/03/22 00:15:08;;;;;;;31.40;9.27;;;13.40;76.00;;;;;;5015158;28;20030;-73
2022/03/22 00:17:34;;;;;;;27.83;9.38;;;13.40;76.00;;;;;;5023387;28;20033;-74
2022/03/22 00:20:01;;;;;;;27.65;9.07;;;13.40;75.90;;;;;;5010833;28;20034;-73
2022/03/22 00:22:27;;;;;;;28.17;8.70;;;13.40;75.90;;;;;;5006527;28;20476;-72
2022/03/22 00:24:53;;;;;;;32.83;9.07;;;13.40;76.00;;;;;;5014066;28;20034;-73
2022/03/22 00:27:18;;;;;;;37.33;9.65;;;13.40;75.90;;;;;;5018616;28;20038;-72
2022/03/22 00:29:44;;;;;;;31.52;9.27;;;13.40;76.00;;;;;;5028126;28;20089;-73
2022/03/22 00:32:10;;;;;;;27.42;9.10;;;13.40;75.90;;;;;;5023284;28;20030;-71
2022/03/22 00:34:44;;;;;;;33.67;9.20;;;13.40;76.00;;;;;;5014964;28;20029;-73
2022/03/22 00:37:13;;;;;;;30.38;9.77;;;13.40;76.10;;;;;;5025922;28;21005;-73
2022/03/22 00:39:39;;;;;;;26.70;9.13;;;13.40;76.00;;;;;;5026724;28;20470;-72
2022/03/22 00:42:04;;;;;;;29.42;10.15;;;13.40;75.90;;;;;;5022517;28;20034;-74
2022/03/22 00:44:30;;;;;;;24.42;9.63;;;13.40;76.00;;;;;;5012562;28;20030;-74
2022/03/22 00:46:55;;;;;;;27.73;9.48;;;13.40;76.00;;;;;;5013181;28;20025;-74
2022/03/22 00:49:21;;;;;;;31.10;9.88;;;13.40;76.00;;;;;;5017923;28;20038;-73
2022/03/22 00:51:47;;;;;;;28.77;9.25;;;13.40;76.00;;;;;;5024623;28;20037;-73
2022/03/22 00:54:13;;;;;;;22.73;8.95;;;13.40;75.90;;;;;;5016453;28;20030;-74
2022/03/22 00:56:39;;;;;;;27.98;9.05;;;13.40;76.00;;;;;;5017458;28;20368;-73
2022/03/22 01:01:49;;;;;;;27.67;8.77;;;13.40;76.20;;;;;;5015266;28;20091;-74
2022/03/22 01:04:14;;;;;;;26.80;9.32;;;13.40;76.10;;;;;;5019791;28;20030;-73
2022/03/22 01:06:40;;;;;;;28.65;9.05;;;13.40;76.10;;;;;;5021195;28;20035;-73
2022/03/22 01:09:05;;;;;;;23.92;8.63;;;13.40;76.00;;;;;;5022772;28;20029;-72
2022/03/22 01:11:31;;;;;;;31.08;9.02;;;13.40;76.00;;;;;;5013127;28;20025;-73
2022/03/22 01:13:56;;;;;;;27.08;8.55;;;13.40;76.00;;;;;;5024531;28;20076;-74
2022/03/22 01:16:22;;;;;;;25.17;9.00;;;13.40;76.00;;;;;;5025809;28;20367;-73
2022/03/22 01:18:47;;;;;;;27.42;9.60;;;13.40;75.90;;;;;;5014060;28;20118;-74
2022/03/22 01:21:13;;;;;;;25.42;9.65;;;13.40;75.80;;;;;;5007469;28;20072;-74
2022/03/22 01:23:38;;;;;;;30.27;9.60;;;13.40;76.00;;;;;;5006378;28;20189;-73
2022/03/22 01:26:06;;;;;;;26.25;8.77;;;13.40;75.90;;;;;;5007541;28;20034;-73
2022/03/22 01:28:31;;;;;;;22.42;9.38;;;13.40;75.90;;;;;;5018308;28;20053;-71
2022/03/22 01:30:56;;;;;;;25.10;8.90;;;13.40;76.00;;;;;;5005842;28;20486;-74
2022/03/22 01:33:22;;;;;;;25.48;8.82;;;13.40;76.00;;;;;;5012085;28;20030;-72
2022/03/22 01:35:47;;;;;;;25.85;8.07;;;13.40;76.00;;;;;;5010385;28;20014;-73
2022/03/22 01:38:13;;;;;;;23.77;8.65;;;13.40;76.10;;;;;;5025448;28;20073;-73
2022/03/22 01:40:39;;;;;;;24.42;9.13;;;13.40;76.20;;;;;;5025580;28;20029;-73
2022/03/22 01:43:05;;;;;;;26.42;8.60;;;13.40;76.00;;;;;;5026596;28;20033;-74
2022/03/22 01:45:31;;;;;;;37.78;8.88;;;13.40;76.00;;;;;;5009358;28;20040;-74
2022/03/22 01:48:02;;;;;;;42.10;9.43;;;13.40;76.40;;;;;;5019029;28;20026;-72
2022/03/22 01:50:29;;;;;;;38.17;9.30;;;13.40;76.60;;;;;;5015906;28;20498;-72
2022/03/22 01:52:56;;;;;;;63.47;10.27;;;13.40;76.20;;;;;;5026458;28;20041;-73
2022/03/22 01:55:23;;;;;;;29.90;8.88;;;13.40;76.70;;;;;;5022333;28;20036;-75
2022/03/22 01:57:49;;;;;;;33.92;9.93;;;13.40;76.50;;;;;;5024648;28;20337;-72
2022/03/22 02:00:17;;;;;;;37.35;9.75;;;13.40;76.30;;;;;;5026328;28;20513;-73
2022/03/22 02:08:16;;;;;;;33.50;9.65;;;13.40;76.30;;;;;;5022091;28;20087;-73
2022/03/22 02:10:42;;;;;;;31.48;9.35;;;13.40;76.20;;;;;;5017099;28;20537;-74
2022/03/22 02:13:08;;;;;;;28.92;9.15;;;13.40;75.90;;;;;;5005249;28;20033;-74
2022/03/22 02:15:33;;;;;;;31.63;9.60;;;13.40;75.90;;;;;;5016883;28;20081;-74
2022/03/22 02:18:00;;;;;;;29.00;8.38;;;13.40;75.90;;;;;;5023806;28;20025;-74
2022/03/22 02:20:26;;;;;;;28.65;9.32;;;13.30;75.90;;;;;;5024883;28;20029;-74
2022/03/22 02:22:58;;;;;;;30.75;8.90;;;13.40;76.00;;;;;;5025776;28;20490;-72
2022/03/22 02:25:24;;;;;;;32.22;8.98;;;13.40;76.10;;;;;;5024155;28;20030;-72
2022/03/22 02:27:52;;;;;;;27.58;9.07;;;13.30;75.90;;;;;;5012814;28;20175;-73
2022/03/22 02:30:18;;;;;;;29.63;8.82;;;13.40;76.00;;;;;;5006057;28;20025;-73
2022/03/22 02:32:51;;;;;;;24.73;8.77;;;13.40;76.00;;;;;;5005764;28;20146;-73
2022/03/22 02:35:17;;;;;;;25.88;8.60;;;13.40;76.00;;;;;;5016745;28;20036;-72
2022/03/22 02:37:43;;;;;;;29.83;9.68;;;13.40;76.10;;;;;;5023934;28;20666;-74
2022/03/22 02:40:09;;;;;;;29.33;9.13;;;13.40;76.20;;;;;;5024684;28;20136;-74
2022/03/22 02:42:35;;;;;;;29.33;9.55;;;13.40;76.30;;;;;;5016144;28;20112;-74
2022/03/22 02:45:01;;;;;;;28.60;9.68;;;13.40;76.40;;;;;;5020913;28;20163;-74
2022/03/22 02:47:26;;;;;;;31.35;9.32;;;13.40;76.00;;;;;;5022536;28;20099;-74
2022/03/22 02:49:52;;;;;;;24.35;9.20;;;13.40;76.00;;;;;;5015910;28;20033;-73
2022/03/22 02:52:17;;;;;;;26.35;9.50;;;13.40;76.20;;;;;;5004873;28;20041;-73
2022/03/22 02:54:43;;;;;;;24.83;9.43;;;13.30;76.30;;;;;;5009766;28;20100;-74
2022/03/22 02:57:08;;;;;;;24.20;8.88;;;13.40;76.00;;;;;;5013982;28;20032;-74
2022/03/22 02:59:34;;;;;;;28.38;8.52;;;13.40;76.10;;;;;;5017845;28;20062;-73
2022/03/22 03:02:00;;;;;;;29.75;9.32;;;13.40;75.90;;;;;;5016766;28;20037;-72
2022/03/22 03:04:26;;;;;;;26.48;9.48;;;13.40;76.00;;;;;;5022797;28;20517;-74
2022/03/22 03:06:52;;;;;;;24.58;9.23;;;13.30;75.90;;;;;;5021921;28;20037;-72
2022/03/22 03:09:17;;;;;;;25.02;9.25;;;13.30;75.90;;;;;;5017121;28;20402;-74
2022/03/22 03:11:43;;;;;;;19.67;8.75;;;13.40;76.80;;;;;;5023702;28;20029;-75
2022/03/22 03:16:53;;;;;;;25.00;8.65;;;13.30;75.90;;;;;;5006793;28;20083;-73
2022/03/22 03:19:18;;;;;;;29.45;9.32;;;13.30;75.90;;;;;;5005565;28;20022;-73
2022/03/22 03:21:44;;;;;;;33.90;9.65;;;13.30;75.90;;;;;;5016556;28;20078;-75
2022/03/22 03:24:10;;;;;;;31.65;10.45;;;13.30;76.30;;;;;;5025580;28;20513;-73
2022/03/22 03:26:35;;;;;;;32.60;10.02;;;13.40;76.20;;;;;;5020065;28;20029;-75
2022/03/22 03:29:01;;;;;;;50.47;11.38;;;13.30;76.30;;;;;;5014462;28;20049;-73
2022/03/22 03:31:26;;;;;;;38.67;9.95;;;13.30;76.90;;;;;;5010553;28;20037;-73
2022/03/22 03:33:54;;;;;;;41.95;9.85;;;13.40;76.80;;;;;;5007676;28;20030;-73
2022/03/22 03:36:20;;;;;;;29.38;11.00;;;13.30;76.20;;;;;;5023990;28;20030;-72
2022/03/22 03:38:45;;;;;;;37.95;9.98;;;13.30;76.20;;;;;;5014665;28;20026;-74
2022/03/22 03:43:57;;;;;;;34.72;9.25;;;13.30;76.00;;;;;;5016878;28;20059;-73
2022/03/22 03:49:07;;;;;;;31.40;9.52;;;13.30;75.90;;;;;;5008316;28;20061;-74
2022/03/22 03:51:34;;;;;;;28.95;9.88;;;13.30;76.10;;;;;;5004150;28;20022;-72
2022/03/22 03:54:00;;;;;;;26.65;9.73;;;13.30;76.00;;;;;;5004298;28;20624;-74
2022/03/22 03:56:26;;;;;;;26.38;9.57;;;13.30;76.00;;;;;;5019990;28;20025;-74
2022/03/22 03:58:51;;;;;;;27.88;9.85;;;13.30;76.50;;;;;;5018119;28;20057;-74
2022/03/22 04:01:17;;;;;;;27.23;9.25;;;13.30;76.10;;;;;;5028683;28;20044;-73
2022/03/22 04:03:42;;;;;;;21.08;8.50;;;13.30;76.10;;;;;;5027064;28;20350;-74
2022/03/22 04:06:07;;;;;;;31.13;9.73;;;13.30;76.00;;;;;;5027688;28;20116;-73
2022/03/22 04:08:33;;;;;;;23.85;8.38;;;13.30;76.20;;;;;;5025204;28;20029;-73
2022/03/22 04:10:59;;;;;;;23.40;8.93;;;13.30;76.10;;;;;;5026419;28;20054;-73
2022/03/22 04:13:24;;;;;;;29.35;9.95;;;13.30;76.10;;;;;;5013074;28;20030;-73
2022/03/22 04:15:50;;;;;;;25.63;9.60;;;13.30;76.10;;;;;;5014221;28;20048;-73
2022/03/22 04:18:15;;;;;;;21.25;8.82;;;13.30;76.10;;;;;;5025073;28;20029;-74
2022/03/22 04:20:41;;;;;;;29.48;9.98;;;13.30;76.10;;;;;;5026607;28;20105;-74
2022/03/22 04:23:08;;;;;;;24.17;8.88;;;13.30;76.10;;;;;;5027425;28;20107;-74
2022/03/22 04:25:34;;;;;;;23.80;9.05;;;13.30;76.30;;;;;;5014058;28;20117;-74
2022/03/22 04:33:28;;;;;;;24.40;9.43;;;13.30;76.20;;;;;;5027530;28;20044;-73
2022/03/22 04:35:53;;;;;;;23.25;8.30;;;13.40;76.30;;;;;;5025314;28;20033;-74
2022/03/22 04:38:19;;;;;;;19.98;8.38;;;13.30;76.20;;;;;;5027795;28;20022;-73
2022/03/22 04:40:45;;;;;;;21.17;9.07;;;13.30;76.20;;;;;;5026921;28;20406;-74
2022/03/22 04:43:10;;;;;;;24.52;8.45;;;13.30;76.20;;;;;;5020312;28;20038;-73
2022/03/22 04:45:36;;;;;;;23.38;8.63;;;13.30;76.30;;;;;;5016964;28;20402;-74
2022/03/22 04:48:01;;;;;;;21.30;8.80;;;13.30;76.20;;;;;;5014451;28;20065;-74
2022/03/22 04:50:27;;;;;;;18.35;9.07;;;13.30;76.40;;;;;;5014280;28;20057;-73
2022/03/22 04:58:22;;;;;;;20.90;8.40;;;13.30;76.10;;;;;;5027870;28;20088;-74
2022/03/22 05:00:48;;;;;;;21.38;8.77;;;13.30;76.10;;;;;;5027693;28;20156;-73
2022/03/22 05:03:14;;;;;;;20.70;8.82;;;13.30;76.20;;;;;;5026402;28;20167;-72
2022/03/22 05:08:23;;;;;;;19.58;9.00;;;13.30;75.90;;;;;;5027258;28;20075;-72
2022/03/22 05:10:49;;;;;;;15.52;8.43;;;13.30;75.90;;;;;;5025988;28;20025;-73
2022/03/22 05:13:14;;;;;;;16.27;8.52;;;13.30;76.00;;;;;;5013611;28;20093;-73
2022/03/22 05:15:40;;;;;;;20.63;9.07;;;13.30;76.00;;;;;;5006430;28;20025;-73
2022/03/22 05:18:05;;;;;;;19.30;8.85;;;13.30;75.90;;;;;;5007369;28;20021;-73
2022/03/22 05:20:31;;;;;;;19.02;8.23;;;13.30;75.90;;;;;;5006646;28;20076;-73
2022/03/22 05:22:58;;;;;;;17.08;8.77;;;13.30;75.90;;;;;;5007744;28;20395;-75
2022/03/22 05:25:24;;;;;;;18.55;8.93;;;13.30;75.90;;;;;;5015428;28;20057;-74
2022/03/22 05:27:49;;;;;;;17.02;8.05;;;13.30;75.80;;;;;;5018983;28;20053;-74
2022/03/22 05:30:15;;;;;;;19.80;8.98;;;13.30;75.80;;;;;;5020045;28;20071;-73
2022/03/22 05:32:40;;;;;;;18.60;8.75;;;13.30;75.70;;;;;;5015517;28;20105;-74
2022/03/22 05:35:06;;;;;;;14.02;8.10;;;13.20;75.90;;;;;;5022288;28;20041;-74
2022/03/22 05:37:32;;;;;;;21.63;8.98;;;13.30;75.60;;;;;;5027230;28;20022;-74
2022/03/22 05:39:57;;;;;;;18.15;8.15;;;13.30;75.70;;;;;;5027807;28;20021;-75
2022/03/22 05:42:23;;;;;;;17.55;8.32;;;13.30;75.90;;;;;;5021894;28;20096;-74
2022/03/22 05:44:49;;;;;;;18.88;8.77;;;13.20;75.70;;;;;;5024288;28;20463;-75
2022/03/22 05:47:15;;;;;;;17.17;8.10;;;13.30;75.80;;;;;;5017850;28;20056;-73
2022/03/22 05:49:40;;;;;;;17.27;8.98;;;13.30;75.80;;;;;;5015797;28;21102;-77
2022/03/22 05:52:06;;;;;;;15.55;7.75;;;13.30;75.80;;;;;;5008246;28;20092;-73
2022/03/22 05:54:33;;;;;;;16.05;8.50;;;13.30;75.90;;;;;;5023631;28;20501;-74
2022/03/22 05:56:59;;;;;;;17.65;8.43;;;13.30;75.90;;;;;;5025008;28;20064;-74
2022/03/22 05:59:24;;;;;;;17.67;8.27;;;13.30;76.00;;;;;;5022589;28;20057;-73
2022/03/22 06:01:50;;;;;;;14.18;8.20;;;13.30;76.20;;;;;;5028782;28;20035;-75
2022/03/22 06:04:16;;;;;;;13.77;8.10;;;13.30;75.90;;;;;;5023784;28;20523;-73
2022/03/22 06:06:42;;;;;;;20.88;8.30;;;13.20;76.40;;;;;;5028459;28;20029;-73
2022/03/22 06:09:07;;;;;;;14.38;7.70;;;13.30;75.80;;;;;;5029761;28;20029;-72
2022/03/22 06:11:35;;;;;;;15.77;7.95;;;13.30;75.80;;;;;;5029528;28;20088;-73
2022/03/22 06:14:04;;;;;;;14.60;8.35;;;13.30;75.80;;;;;;5029785;28;20029;-74
2022/03/22 06:16:30;;;;;;;15.25;8.85;;;13.30;75.80;;;;;;5030131;28;20100;-74
2022/03/22 06:18:56;;;;;;;12.43;8.02;;;13.30;75.80;;;;;;5029241;28;20056;-75
2022/03/22 06:21:21;;;;;;;14.65;8.27;;;13.30;75.70;;;;;;5027385;28;20360;-74
2022/03/22 06:23:47;;;;;;;14.77;7.90;;;13.40;75.50;;;;;;5024393;28;20027;-75
2022/03/22 06:26:13;;;;;;;15.18;8.40;;;13.40;76.00;;;;;;5029342;28;20112;-73
2022/03/22 06:28:39;;;;;;;14.02;8.25;;;13.40;75.70;;;;;;5027991;28;20033;-73
2022/03/22 06:31:04;;;;;;;16.55;8.23;;;13.40;75.80;;;;;;5028800;28;20036;-76
2022/03/22 06:33:30;;;;;;;12.77;8.27;;;13.40;75.70;;;;;;5029009;28;20033;-75
2022/03/22 06:35:56;;;;;;;16.17;7.72;;;13.40;75.70;;;;;;5028685;28;20025;-73
2022/03/22 06:38:21;;;;;;;15.25;8.38;;;13.40;75.60;;;;;;5017590;28;20049;-74
2022/03/22 06:40:49;;;;;;;17.65;8.80;;;13.40;75.50;;;;;;5009163;28;20395;-73
2022/03/22 06:43:15;;;;;;;15.48;8.48;;;13.40;75.40;;;;;;5008738;28;20025;-74
2022/03/22 06:45:42;;;;;;;14.65;8.45;;;13.40;75.60;;;;;;5010235;28;20049;-75
2022/03/22 06:48:08;;;;;;;13.93;8.15;;;13.40;75.50;;;;;;5010419;28;20029;-76
2022/03/22 06:50:34;;;;;;;16.65;9.18;;;13.40;75.40;;;;;;5010698;28;20108;-73
2022/03/22 06:53:01;;;;;;;14.93;8.23;;;13.40;75.30;;;;;;5009299;28;20040;-74
2022/03/22 06:55:26;;;;;;;14.18;8.48;;;13.50;75.30;;;;;;5014028;28;20470;-74
2022/03/22 06:57:52;;;;;;;13.80;7.47;;;13.50;75.20;;;;;;5016776;28;20036;-75
2022/03/22 07:00:20;;;;;;;14.20;8.57;;;13.50;75.00;;;;;;5022733;28;20491;-76
2022/03/22 07:02:47;;;;;;;14.45;8.65;;;13.50;75.00;;;;;;5009320;28;20026;-75
2022/03/22 07:05:12;;;;;;;13.98;8.52;;;13.50;74.80;;;;;;5017242;28;20036;-75
2022/03/22 07:07:39;;;;;;;15.80;9.02;;;13.50;74.70;;;;;;5009125;28;20105;-73
2022/03/22 07:10:07;;;;;;;13.20;8.38;;;13.60;74.80;;;;;;5006765;28;20080;-74
2022/03/22 07:12:32;;;;;;;16.27;8.68;;;13.60;74.50;;;;;;5005993;28;20406;-75
2022/03/22 07:14:58;;;;;;;16.35;7.97;;;13.60;74.60;;;;;;5007512;28;20030;-75
2022/03/22 07:17:24;;;;;;;19.20;8.77;;;13.60;74.60;;;;;;5007240;28;20581;-76
2022/03/22 07:19:51;;;;;;;16.45;8.52;;;13.70;74.50;;;;;;5006289;28;20059;-75
2022/03/22 07:22:16;;;;;;;17.27;9.18;;;13.70;74.30;;;;;;5007273;28;20080;-74
2022/03/22 07:24:41;;;;;;;16.52;9.25;;;13.70;74.10;;;;;;5007698;28;20369;-75
2022/03/22 07:27:07;;;;;;;16.30;8.68;;;13.70;74.00;;;;;;5006949;28;20026;-74
2022/03/22 07:29:33;;;;;;;17.63;9.73;;;13.80;74.00;;;;;;5005707;28;20052;-74
2022/03/22 07:31:59;;;;;;;21.10;9.60;;;13.80;73.70;;;;;;5006779;28;20128;-74
2022/03/22 07:34:25;;;;;;;18.88;9.10;;;13.80;73.50;;;;;;5010183;28;20064;-74
2022/03/22 07:36:52;;;;;;;19.88;9.38;;;13.80;73.60;;;;;;5010797;28;20080;-73
2022/03/22 07:39:19;;;;;;;16.15;8.88;;;13.90;73.70;;;;;;5011551;28;20032;-73
2022/03/22 07:41:45;;;;;;;19.98;9.20;;;13.90;73.80;;;;;;5011413;28;20025;-75
2022/03/22 07:44:15;;;;;;;14.38;8.95;;;13.90;73.60;;;;;;5009911;28;20041;-74
2022/03/22 07:46:41;;;;;;;20.17;9.45;;;13.90;73.70;;;;;;5009959;28;20038;-75
2022/03/22 07:54:35;;;;;;;20.60;8.80;;;14.00;73.30;;;;;;5010951;28;20036;-73
2022/03/22 07:57:01;;;;;;;16.17;8.85;;;14.00;73.30;;;;;;5009594;28;20069;-74
2022/03/22 07:59:27;;;;;;;15.85;9.70;;;14.00;73.20;;;;;;5009397;28;20112;-73
2022/03/22 08:01:53;;;;;;;16.15;9.02;;;14.00;73.30;;;;;;5009775;28;20121;-74
2022/03/22 08:04:19;;;;;;;16.55;9.23;;;14.00;73.10;;;;;;5010672;28;20041;-73
2022/03/22 08:06:45;;;;;;;14.57;9.13;;;14.10;73.20;;;;;;5010522;28;20026;-75
2022/03/22 08:09:11;;;;;;;17.02;9.45;;;14.10;73.20;;;;;;5010508;28;20026;-74
2022/03/22 08:11:36;;;;;;;16.60;8.90;;;14.10;73.10;;;;;;5010286;28;20065;-74
2022/03/22 08:14:04;;;;;;;11.85;8.98;;;14.10;73.10;;;;;;5009176;28;20054;-77
2022/03/22 08:16:29;;;;;;;16.27;8.55;;;14.20;73.10;;;;;;5009458;28;20061;-74
2022/03/22 08:18:55;;;;;;;14.57;9.00;;;14.10;73.10;;;;;;5008628;28;20096;-73
2022/03/22 08:21:21;;;;;;;15.95;8.93;;;14.20;73.10;;;;;;5010811;28;20026;-75
2022/03/22 08:23:47;;;;;;;13.18;8.48;;;14.20;73.00;;;;;;5008847;28;20033;-74
2022/03/22 08:26:13;;;;;;;13.02;8.32;;;14.20;72.90;;;;;;5010228;28;20030;-74
2022/03/22 08:28:40;;;;;;;16.92;9.50;;;14.20;72.90;;;;;;5009502;28;20056;-73
2022/03/22 08:31:06;;;;;;;12.48;8.82;;;14.20;72.90;;;;;;5010493;28;20033;-75
2022/03/22 08:33:32;;;;;;;13.73;8.35;;;14.20;72.90;;;;;;5008730;28;20030;-72
2022/03/22 08:35:57;;;;;;;14.05;8.63;;;14.30;72.90;;;;;;5009064;28;20121;-75
2022/03/22 08:38:24;;;;;;;14.55;8.93;;;14.30;72.90;;;;;;5008194;28;20022;-73
2022/03/22 08:40:51;;;;;;;13.45;8.60;;;14.30;72.90;;;;;;5010337;28;20014;-75
2022/03/22 08:43:19;;;;;;;12.45;8.40;;;14.30;72.90;;;;;;5009269;28;20380;-74
2022/03/22 08:45:45;;;;;;;13.43;8.70;;;14.40;72.80;;;;;;5009663;28;21036;-73
2022/03/22 08:48:11;;;;;;;12.57;8.32;;;14.30;72.80;;;;;;5009672;28;20073;-74
2022/03/22 08:50:38;;;;;;;14.38;8.82;;;14.40;72.80;;;;;;5009788;28;20029;-73
2022/03/22 08:53:05;;;;;;;14.40;8.98;;;14.40;72.80;;;;;;5009665;28;20033;-74
2022/03/22 08:55:30;;;;;;;13.40;8.30;;;14.40;72.80;;;;;;5008417;28;20088;-73
2022/03/22 08:57:56;;;;;;;14.50;9.20;;;14.40;72.80;;;;;;5009802;28;20022;-74
2022/03/22 09:00:22;;;;;;;12.30;8.50;;;14.40;72.80;;;;;;5008255;28;20041;-73
2022/03/22 09:02:50;;;;;;;14.32;8.07;;;14.40;72.70;;;;;;5009687;28;20014;-74
2022/03/22 09:08:05;;;;;;;11.38;8.20;;;14.50;72.70;;;;;;5009175;28;20765;-75
2022/03/22 09:10:32;;;;;;;13.70;8.43;;;14.50;72.70;;;;;;5009815;28;20036;-74
2022/03/22 09:12:58;;;;;;;12.48;8.25;;;14.50;72.70;;;;;;5007872;28;20120;-75
2022/03/22 09:15:28;;;;;;;12.65;8.63;;;14.50;72.60;;;;;;5008015;28;20518;-74
2022/03/22 09:17:55;;;;;;;13.68;8.48;;;14.50;72.70;;;;;;5007832;28;20018;-74
2022/03/22 09:20:21;;;;;;;13.38;8.57;;;14.50;72.50;;;;;;5007938;28;20129;-73
2022/03/22 09:22:51;;;;;;;12.02;8.27;;;14.50;72.50;;;;;;5008307;28;20113;-75
2022/03/22 09:25:18;;;;;;;13.05;7.97;;;14.50;72.50;;;;;;5008987;28;20025;-72
2022/03/22 09:27:44;;;;;;;12.48;8.25;;;14.50;72.50;;;;;;5007370;28;20554;-75
2022/03/22 09:30:11;;;;;;;13.23;8.68;;;14.60;72.50;;;;;;5008027;28;20092;-74
2022/03/22 09:32:38;;;;;;;12.98;8.57;;;14.60;72.50;;;;;;5008268;28;20126;-74
2022/03/22 09:35:10;;;;;;;11.27;8.23;;;14.60;72.40;;;;;;5007674;28;20056;-73
2022/03/22 09:37:41;;;;;;;11.32;7.95;;;14.60;72.40;;;;;;5007457;28;20148;-72
2022/03/22 09:40:07;;;;;;;12.55;7.78;;;14.60;72.40;;;;;;5007696;28;20406;-75
2022/03/22 09:42:33;;;;;;;11.65;8.43;;;14.60;72.30;;;;;;5009330;28;20022;-75
2022/03/22 09:45:02;;;;;;;11.90;7.75;;;14.70;72.30;;;;;;5007494;28;20048;-72
2022/03/22 09:47:28;;;;;;;10.98;7.93;;;14.70;72.30;;;;;;5008333;28;20535;-73
2022/03/22 09:49:55;;;;;;;12.38;7.95;;;14.70;72.20;;;;;;5007156;28;20483;-75
2022/03/22 09:52:21;;;;;;;10.98;7.88;;;14.70;72.20;;;;;;5006973;28;20092;-73
2022/03/22 09:54:47;;;;;;;12.13;7.93;;;14.70;72.20;;;;;;5010188;28;20125;-74
2022/03/22 09:57:13;;;;;;;11.00;7.97;;;14.70;72.10;;;;;;5017112;28;20113;-74
2022/03/22 09:59:38;;;;;;;11.05;7.82;;;14.70;72.10;;;;;;5018105;28;20006;-76
2022/03/22 10:02:05;;;;;;;11.20;7.85;;;14.70;72.10;;;;;;5012359;28;20026;-74
2022/03/22 10:04:42;;;;;;;11.48;7.90;;;14.80;72.10;;;;;;5020577;28;20057;-75
2022/03/22 10:07:18;;;;;;;11.40;8.07;;;14.70;72.10;;;;;;5009193;28;20052;-75
2022/03/22 10:10:02;;;;;;;11.05;7.53;;;14.80;72.10;;;;;;5011420;28;20034;-74
2022/03/22 10:12:33;;;;;;;11.38;7.85;;;14.80;72.10;;;;;;5026032;28;20080;-75
2022/03/22 10:15:12;;;;;;;11.90;7.95;;;14.80;72.10;;;;;;5018455;28;20499;-73
2022/03/22 10:17:38;;;;;;;11.25;7.97;;;14.80;72.10;;;;;;5020543;28;20022;-74
2022/03/22 10:20:05;;;;;;;11.65;7.85;;;14.80;72.10;;;;;;5021447;28;20433;-75
2022/03/22 10:22:32;;;;;;;10.82;7.68;;;14.80;72.10;;;;;;5023706;28;20021;-74
2022/03/22 10:24:59;;;;;;;10.93;7.50;;;14.80;72.10;;;;;;5017838;28;20030;-75
2022/03/22 10:27:31;;;;;;;12.00;7.47;;;14.80;72.10;;;;;;5025353;28;20033;-73
2022/03/22 10:29:58;;;;;;;10.77;7.75;;;14.80;72.10;;;;;;5027922;28;20033;-74
2022/03/22 10:32:35;;;;;;;10.48;7.80;;;14.90;72.10;;;;;;5028215;28;20033;-74
2022/03/22 10:35:24;;;;;;;11.52;7.90;;;14.80;72.10;;;;;;5028370;28;20033;-75
2022/03/22 10:37:54;;;;;;;10.60;7.40;;;14.80;72.10;;;;;;5029758;28;20109;-74
2022/03/22 10:40:34;;;;;;;11.65;7.30;;;14.80;72.10;;;;;;5030042;28;20394;-76
2022/03/22 10:43:03;;;;;;;10.43;7.43;;;14.80;72.10;;;;;;5022979;28;20041;-75
2022/03/22 10:45:41;;;;;;;11.95;7.65;;;14.80;72.10;;;;;;5007408;28;20113;-73
2022/03/22 10:48:07;;;;;;;11.02;7.38;;;14.80;72.20;;;;;;5005666;28;20029;-74
2022/03/22 10:50:37;;;;;;;11.35;7.47;;;14.90;72.30;;;;;;5006431;28;20032;-75
2022/03/22 10:53:03;;;;;;;10.77;7.50;;;14.80;72.20;;;;;;5007053;28;20018;-74
2022/03/22 10:55:29;;;;;;;9.98;7.32;;;14.80;72.20;;;;;;5005987;28;20698;-75
2022/03/22 10:57:59;;;;;;;9.32;7.15;;;14.90;72.20;;;;;;5006833;28;20022;-74
2022/03/22 11:00:26;;;;;;;10.15;6.90;;;14.90;72.60;;;;;;5006311;28;20037;-75
2022/03/22 11:02:54;;;;;;;11.15;7.55;;;14.90;72.10;;;;;;5005746;28;20033;-74
2022/03/22 11:05:22;;;;;;;11.52;8.00;;;14.90;72.10;;;;;;5006739;28;20038;-75
2022/03/22 11:07:49;;;;;;;10.40;7.57;;;14.90;72.00;;;;;;5005123;28;20064;-73
2022/03/22 11:10:29;;;;;;;9.82;6.90;;;14.90;72.00;;;;;;5005680;28;20403;-74
2022/03/22 11:12:58;;;;;;;11.98;8.15;;;15.00;72.00;;;;;;5006219;28;20033;-73
2022/03/22 11:15:29;;;;;;;10.65;7.22;;;15.00;72.00;;;;;;5006807;28;20479;-74
2022/03/22 11:17:56;;;;;;;12.27;7.25;;;15.00;72.00;;;;;;5005133;28;20029;-74
2022/03/22 11:20:27;;;;;;;9.93;7.40;;;15.00;71.90;;;;;;5007000;28;20088;-75
2022/03/22 11:22:57;;;;;;;9.95;7.45;;;15.00;71.90;;;;;;5006016;28;20432;-75
2022/03/22 11:25:35;;;;;;;10.68;7.25;;;15.00;71.80;;;;;;5007209;28;20136;-75
2022/03/22 11:28:06;;;;;;;10.30;7.20;;;15.10;71.90;;;;;;5005508;28;20041;-75
2022/03/22 11:30:33;;;;;;;10.40;7.65;;;15.10;71.90;;;;;;5005745;28;20068;-75
2022/03/22 11:35:48;;;;;;;9.30;6.90;;;15.10;71.80;;;;;;5007387;28;20041;-74
2022/03/22 11:38:34;;;;;;;9.60;6.72;;;15.10;71.90;;;;;;5006796;28;20365;-75
2022/03/22 11:43:44;;;;;;;9.68;6.82;;;15.10;71.90;;;;;;5007566;28;20501;-75
2022/03/22 11:46:09;;;;;;;9.63;6.60;;;15.00;71.90;;;;;;5006215;28;20026;-75
2022/03/22 11:48:38;;;;;;;9.18;7.15;;;15.00;72.00;;;;;;5005405;28;20034;-74
2022/03/22 11:51:10;;;;;;;10.25;7.10;;;15.10;72.00;;;;;;5007078;28;20040;-73
2022/03/22 11:53:45;;;;;;;10.00;7.13;;;14.90;71.90;;;;;;5007091;28;20372;-74
2022/03/22 11:56:11;;;;;;;9.70;6.60;;;15.00;72.00;;;;;;5006160;28;20026;-75
2022/03/22 11:58:48;;;;;;;9.95;7.03;;;15.10;72.00;;;;;;5005763;28;20399;-75
2022/03/22 12:01:17;;;;;;;10.65;7.10;;;15.10;72.10;;;;;;5007367;28;20038;-75
2022/03/22 12:03:52;;;;;;;10.50;7.10;;;15.00;72.00;;;;;;5007288;28;20080;-75
2022/03/22 12:06:19;;;;;;;11.60;6.57;;;15.00;72.10;;;;;;5006374;28;20030;-74
2022/03/22 12:08:45;;;;;;;11.23;6.63;;;15.10;72.10;;;;;;5004781;28;20033;-74
2022/03/22 12:11:16;;;;;;;10.30;6.85;;;15.10;72.10;;;;;;5005206;28;20092;-73
2022/03/22 12:13:47;;;;;;;10.75;6.53;;;15.00;72.10;;;;;;5005077;28;20030;-73
2022/03/22 12:16:13;;;;;;;10.75;7.43;;;15.00;72.10;;;;;;5005115;28;20113;-73
2022/03/22 12:18:41;;;;;;;10.80;7.20;;;15.00;72.10;;;;;;5004968;28;20098;-74
2022/03/22 12:21:18;;;;;;;9.85;6.97;;;15.10;72.20;;;;;;5010165;28;20181;-74
2022/03/22 12:23:45;;;;;;;11.13;6.80;;;15.00;72.20;;;;;;5009886;28;20426;-73
2022/03/22 12:26:11;;;;;;;10.57;7.10;;;14.90;72.10;;;;;;5008945;28;20036;-75
2022/03/22 12:28:51;;;;;;;10.60;6.68;;;15.00;72.20;;;;;;5008686;28;20029;-73
2022/03/22 12:31:21;;;;;;;11.70;7.25;;;15.00;72.20;;;;;;5008474;28;20113;-73
2022/03/22 12:33:50;;;;;;;9.88;6.65;;;15.00;72.20;;;;;;5008819;28;20411;-72
2022/03/22 12:36:16;;;;;;;10.45;6.53;;;15.00;72.20;;;;;;5009066;28;20502;-72
2022/03/22 12:38:42;;;;;;;9.90;6.70;;;15.10;72.30;;;;;;5007982;28;20034;-73
2022/03/22 12:41:08;;;;;;;10.82;6.68;;;15.00;72.20;;;;;;5008332;28;20029;-74
2022/03/22 12:43:34;;;;;;;8.93;6.70;;;15.00;72.20;;;;;;5009591;28;20026;-75
2022/03/22 12:46:00;;;;;;;9.38;6.57;;;14.90;72.20;;;;;;5008268;28;20034;-76
2022/03/22 12:48:25;;;;;;;8.75;6.55;;;15.00;72.20;;;;;;5007547;28;20022;-73
2022/03/22 12:50:51;;;;;;;9.77;7.10;;;15.00;72.10;;;;;;5007945;28;20390;-74
2022/03/22 12:53:18;;;;;;;11.10;7.25;;;15.00;72.10;;;;;;5008167;28;20360;-73
2022/03/22 12:55:44;;;;;;;10.23;7.18;;;14.90;72.10;;;;;;5009787;28;20022;-73
2022/03/22 12:58:10;;;;;;;9.57;7.18;;;15.00;72.20;;;;;;5009062;28;20021;-74
2022/03/22 13:00:40;;;;;;;10.30;7.22;;;15.00;72.20;;;;;;5009728;28;20037;-73
2022/03/22 13:03:11;;;;;;;9.80;6.60;;;15.00;72.30;;;;;;5008355;28;20029;-74
2022/03/22 13:05:41;;;;;;;12.43;6.88;;;15.00;72.40;;;;;;5008479;28;20026;-73
2022/03/22 13:08:19;;;;;;;10.75;7.38;;;15.00;72.40;;;;;;5007095;28;20076;-74
2022/03/22 13:15:01;;;;;;;11.18;7.35;;;14.90;72.40;;;;;;5009328;28;20141;-74
2022/03/22 13:16:22;;;;;;;9.98;7.00;;;14.90;72.50;;;;;;5009125;28;20541;-73
2022/03/22 13:18:49;;;;;;;11.55;6.40;;;14.90;72.60;;;;;;5008662;28;20029;-75
2022/03/22 13:21:24;;;;;;;9.00;6.50;;;14.90;72.60;;;;;;5007296;28;20033;-74
2022/03/22 13:24:08;;;;;;;10.63;7.00;;;14.90;72.70;;;;;;5007582;28;20474;-76